Chaleur - Miscou: Past 24 Hour Conditions

 

St. Anthony Airport

07:30 AM NST 27 November 2014
This table is a summary of hourly weather conditions for the past 24 hours.
Date / Time
(NST)
Wind(knots) Conditions Visibility(km) Pressure(kPa) Air tempC) Relative humidity(%) Dew pointC) Wind Chill
27 November 2014
7:30 NNE 4 Light Snow 16 101.7 -3 88 -5 -6
6:30 N 2 Cloudy 16 101.8 -3 87 -5 -5
5:30 NE 4 Cloudy 16 101.7 -3 86 -5 -6
4:30 NE 4 Cloudy 16 101.8 -3 88 -5 -7
3:30 NNE 2 Mostly Cloudy 16 101.9 -4 87 -5 -5
2:30 NNW 3 Clear 16 102.0 -3 85 -5 -5
1:30 NW 3 Cloudy 16 102.0 -3 85 -6 -5
0:30 NW 3 Mostly Cloudy 16 102.0 -3 84 -6 -5
26 November 2014
23:30 NW 6 Clear 16 102.0 -4 81 -6 -8
22:30 NNW 5 Cloudy 16 101.9 -3 77 -7 -7
21:30 WNW 5 Mostly Cloudy 16 101.9 -2 77 -6 -6
20:30 WNW 8 Mostly Cloudy 16 101.8 -2 77 -6 -7
19:30 W 8 Mostly Cloudy 16 101.8 -1 72 -6 -6
18:30 WNW 10 Mostly Cloudy 16 101.8 -1 70 -6 -6
17:30 W 7 Mostly Cloudy 16 101.6 -1 70 -6 -5
16:30 W 13 Mainly Clear 16 101.5 -1 71 -6 -7
15:30 W 12 gust 19 Sunny 16 101.3 0 67 -6 -6
14:30 W 20 Sunny 16 101.1 0 66 -6 -7
13:30 W 19 gust 27 Sunny 16 100.9 0 66 -5 *
12:30 W 26 gust 35 Sunny 16 100.7 1 65 -5 *
11:30 W 26 gust 32 Mainly Sunny 16 100.6 1 68 -5 *
10:30 W 19 gust 27 Sunny 16 100.6 1 67 -5 *
9:30 W 26 gust 34 Sunny 16 100.4 1 65 -5 *
8:30 WSW 23 gust 32 Sunny 16 100.3 1 66 -5 *
7:30 W 27 gust 36 Mainly Clear 16 100.1 2 70 -3 *
 
Map of Atlantic - Newfoundland marine weather areas Southwestern Grand Banks - 44138 Banquereau - 44139 Tail of the Bank - 44140 Nickerson Bank - 44251 Northeast Burgeo Bank - 44255 Blanc-Sablon Airport Cap Whittle Chevery Natashquan Airport Heath Point Miscou Island Grand Étang Ingonish Beach North Mountain St.Paul Island J.A. Douglas McCurdy Sydney Airport Charlottetown Airport East Point North Cape Argentia Bonavista Burgeo Cape Race Corner Brook Daniel's Harbour Englee Ferolle Point La Scie Port aux Basques Rocky Harbour Sagona Island St. Anthony Airport St. John's Int'l Airport St. Lawrence Stephenville Airport Twillingate Winterland Wreckhouse Cartwright Airport Mary's Harbour Grates Cove Pool's Island Marticot Island Long Pond Îles de la Madeleine Airport
Legend: buoyBuoy land stationLand Station